Time;durP1;ratioP1;P1;durP2;ratioP2;P2;SDS_P1;SDS_P2;PMS_P1;PMS_P2;Temp;Humidity;BMP_temperature;BMP_pressure;BME280_temperature;BME280_humidity;BME280_pressure;Samples;Min_cycle;Max_cycle;Signal;HPM_P1;HPM_P2
2023/10/09 00:00:50;;;;;;;12.90;5.90;;;14.30;1.00;;;;;;5024840;28;20585;-74
2023/10/09 00:03:17;;;;;;;9.23;5.90;;;14.30;1.00;;;;;;5023786;28;20989;-78
2023/10/09 00:05:46;;;;;;;18.30;6.73;;;14.20;1.00;;;;;;5027206;28;20502;-75
2023/10/09 00:08:21;;;;;;;17.47;6.23;;;14.30;1.00;;;;;;5027276;28;20433;-76
2023/10/09 00:10:53;;;;;;;16.00;6.27;;;14.30;1.00;;;;;;5025606;28;20455;-76
2023/10/09 00:13:26;;;;;;;10.87;5.50;;;14.30;1.00;;;;;;5028443;28;20850;-76
2023/10/09 00:15:53;;;;;;;11.10;5.70;;;14.20;1.00;;;;;;5024075;28;20432;-76
2023/10/09 00:18:22;;;;;;;9.50;5.77;;;14.20;1.00;;;;;;5031362;28;20518;-76
2023/10/09 00:20:54;;;;;;;13.80;5.50;;;14.20;1.00;;;;;;5028562;28;20464;-76
2023/10/09 00:23:20;;;;;;;11.83;5.17;;;14.20;1.00;;;;;;5028245;28;20457;-76
2023/10/09 00:26:05;;;;;;;12.57;6.10;;;14.20;1.00;;;;;;5025522;28;20429;-76
2023/10/09 00:28:30;;;;;;;9.70;5.87;;;14.20;1.00;;;;;;5028283;28;20194;-75
2023/10/09 00:30:56;;;;;;;10.23;6.00;;;14.10;1.00;;;;;;5031531;28;20515;-76
2023/10/09 00:33:22;;;;;;;10.77;5.77;;;14.00;1.00;;;;;;5027872;28;20216;-78
2023/10/09 00:35:54;;;;;;;13.33;6.20;;;14.00;1.00;;;;;;5042341;28;20177;-76
2023/10/09 00:40:47;;;;;;;13.60;5.97;;;14.00;1.00;;;;;;5032358;28;20535;-76
2023/10/09 00:43:15;;;;;;;12.27;5.80;;;14.00;1.00;;;;;;5028647;28;20316;-74
2023/10/09 00:45:44;;;;;;;12.43;5.80;;;14.10;1.00;;;;;;5029109;28;20511;-76
2023/10/09 00:48:13;;;;;;;8.50;5.23;;;14.00;1.00;;;;;;5030559;28;20505;-77
2023/10/09 00:50:46;;;;;;;14.93;5.37;;;14.10;1.00;;;;;;5038654;28;20451;-76
2023/10/09 00:53:18;;;;;;;12.53;5.40;;;14.10;1.00;;;;;;5030990;28;20467;-77
2023/10/09 00:55:55;;;;;;;12.40;5.47;;;14.10;1.00;;;;;;5028687;28;20898;-76
2023/10/09 00:58:24;;;;;;;10.43;5.20;;;14.10;1.00;;;;;;5026135;28;20471;-76
2023/10/09 01:00:52;;;;;;;15.67;5.57;;;14.00;1.00;;;;;;5043684;28;20827;-76
2023/10/09 01:03:22;;;;;;;18.27;6.23;;;14.00;1.00;;;;;;5045384;28;21035;-77
2023/10/09 01:05:52;;;;;;;18.80;6.63;;;13.90;1.00;;;;;;5028358;28;20577;-75
2023/10/09 01:08:26;;;;;;;16.43;5.60;;;14.00;1.00;;;;;;5028278;28;20922;-76
2023/10/09 01:11:08;;;;;;;11.97;5.60;;;14.10;1.00;;;;;;5028446;28;20522;-77
2023/10/09 01:16:16;;;;;;;19.53;6.20;;;14.20;1.00;;;;;;5028197;28;20772;-77
2023/10/09 01:18:49;;;;;;;11.13;5.87;;;14.20;1.00;;;;;;5028463;28;20424;-76
2023/10/09 01:21:15;;;;;;;17.50;5.90;;;14.20;1.00;;;;;;5034431;28;20506;-76
2023/10/09 01:24:04;;;;;;;18.67;7.23;;;14.20;1.00;;;;;;5030530;28;20442;-75
2023/10/09 01:26:39;;;;;;;10.90;5.40;;;14.20;1.00;;;;;;5027793;28;20424;-76
2023/10/09 01:29:14;;;;;;;10.97;5.60;;;14.20;1.00;;;;;;5023077;28;20439;-75
2023/10/09 01:31:56;;;;;;;16.30;6.00;;;14.30;1.00;;;;;;5020452;28;20972;-75
2023/10/09 01:37:22;;;;;;;12.43;5.30;;;14.40;1.00;;;;;;5030244;28;20774;-75
2023/10/09 01:39:50;;;;;;;19.90;6.17;;;14.40;1.00;;;;;;5023691;28;20424;-75
2023/10/09 01:42:34;;;;;;;17.60;6.13;;;14.60;1.00;;;;;;5027932;28;20468;-75
2023/10/09 01:45:10;;;;;;;16.43;5.70;;;14.50;1.00;;;;;;5027927;28;20463;-76
2023/10/09 01:47:37;;;;;;;14.83;5.93;;;14.60;1.00;;;;;;5026939;28;20906;-76
2023/10/09 01:50:05;;;;;;;15.53;5.93;;;14.60;1.00;;;;;;5031006;28;20859;-76
2023/10/09 01:52:30;;;;;;;13.23;5.90;;;14.60;1.00;;;;;;5028494;28;20436;-76
2023/10/09 01:55:03;;;;;;;20.03;5.73;;;14.60;1.00;;;;;;5031627;28;20432;-75
2023/10/09 01:57:30;;;;;;;20.93;6.40;;;14.70;1.00;;;;;;5028899;28;20202;-78
2023/10/09 01:59:59;;;;;;;15.87;6.40;;;14.70;1.00;;;;;;5028036;28;20956;-76
2023/10/09 02:04:53;;;;;;;44.00;6.53;;;14.70;1.00;;;;;;5028040;28;20444;-75
2023/10/09 02:07:26;;;;;;;21.77;6.13;;;14.70;1.00;;;;;;5028313;28;20170;-76
2023/10/09 02:09:53;;;;;;;16.70;6.17;;;14.70;1.00;;;;;;5031509;28;20932;-76
2023/10/09 02:12:21;;;;;;;20.60;6.00;;;14.70;1.00;;;;;;5031147;28;20491;-75
2023/10/09 02:14:47;;;;;;;12.43;5.50;;;14.80;1.00;;;;;;5031315;28;20425;-76
2023/10/09 02:17:17;;;;;;;15.50;6.63;;;14.80;1.00;;;;;;5031211;28;20439;-76
2023/10/09 02:19:48;;;;;;;9.33;5.23;;;14.80;1.00;;;;;;5032175;28;20269;-76
2023/10/09 02:22:14;;;;;;;16.93;5.87;;;14.80;1.00;;;;;;5031253;28;20502;-75
2023/10/09 02:24:57;;;;;;;12.77;5.20;;;14.80;1.00;;;;;;5030842;28;20409;-76
2023/10/09 02:27:44;;;;;;;24.47;5.73;;;14.80;1.00;;;;;;5031048;28;20870;-76
2023/10/09 02:30:19;;;;;;;17.30;5.90;;;14.80;1.00;;;;;;5024568;28;20415;-75
2023/10/09 02:32:54;;;;;;;18.07;5.83;;;14.70;1.00;;;;;;5030855;28;20467;-77
2023/10/09 02:35:38;;;;;;;20.20;6.10;;;14.70;1.00;;;;;;5031437;28;20436;-76
2023/10/09 02:38:08;;;;;;;13.87;5.90;;;14.70;1.00;;;;;;5030806;28;20494;-77
2023/10/09 02:40:40;;;;;;;14.00;6.00;;;14.60;1.00;;;;;;5029757;28;20926;-75
2023/10/09 02:43:12;;;;;;;18.50;5.60;;;14.60;1.00;;;;;;5029827;28;20448;-76
2023/10/09 02:45:49;;;;;;;12.40;5.70;;;14.30;1.00;;;;;;5032211;28;21081;-77
2023/10/09 02:48:19;;;;;;;15.83;6.00;;;14.60;1.00;;;;;;5030458;28;20436;-75
2023/10/09 02:50:44;;;;;;;13.17;5.90;;;14.60;1.00;;;;;;5029344;28;20431;-76
2023/10/09 02:53:18;;;;;;;13.07;5.73;;;14.70;1.00;;;;;;5027842;28;20448;-76
2023/10/09 02:55:53;;;;;;;18.93;6.30;;;14.70;1.00;;;;;;5023899;28;20174;-75
2023/10/09 02:58:21;;;;;;;15.93;5.90;;;14.70;1.00;;;;;;5031210;28;20530;-75
2023/10/09 03:00:48;;;;;;;18.70;5.67;;;14.70;1.00;;;;;;5029686;28;20461;-76
2023/10/09 03:03:18;;;;;;;12.93;5.97;;;14.70;1.00;;;;;;5030463;28;20463;-76
2023/10/09 03:05:44;;;;;;;27.87;6.80;;;14.70;1.00;;;;;;5028997;28;20515;-75
2023/10/09 03:08:12;;;;;;;18.47;6.50;;;14.90;1.00;;;;;;5031012;28;20515;-76
2023/10/09 03:10:38;;;;;;;13.03;6.07;;;14.80;1.00;;;;;;5028432;28;20174;-76
2023/10/09 03:13:05;;;;;;;19.30;6.27;;;14.80;1.00;;;;;;5030837;28;20539;-76
2023/10/09 03:15:35;;;;;;;15.00;5.97;;;14.80;1.00;;;;;;5037301;28;20446;-76
2023/10/09 03:18:02;;;;;;;20.37;5.93;;;14.90;1.00;;;;;;5026987;28;20425;-81
2023/10/09 03:20:29;;;;;;;15.87;6.10;;;14.90;1.00;;;;;;5029403;28;20466;-76
2023/10/09 03:22:57;;;;;;;19.73;5.93;;;14.90;1.00;;;;;;5030136;28;20498;-78
2023/10/09 03:25:25;;;;;;;14.53;6.23;;;14.90;1.00;;;;;;5030712;28;20440;-76
2023/10/09 03:27:52;;;;;;;16.63;6.00;;;14.90;1.00;;;;;;5030701;28;20670;-75
2023/10/09 03:30:27;;;;;;;15.53;5.90;;;14.90;1.00;;;;;;5030322;28;20421;-76
2023/10/09 03:32:53;;;;;;;12.73;5.57;;;15.00;1.00;;;;;;5025919;28;20451;-75
2023/10/09 03:35:27;;;;;;;14.90;6.23;;;14.90;1.00;;;;;;5028974;28;21012;-76
2023/10/09 03:37:57;;;;;;;20.20;6.23;;;14.90;1.00;;;;;;5025802;28;20435;-77
2023/10/09 03:40:23;;;;;;;19.17;6.43;;;14.90;1.00;;;;;;5021359;28;20420;-76
2023/10/09 03:42:49;;;;;;;24.23;7.00;;;14.80;1.00;;;;;;5026898;28;20872;-75
2023/10/09 03:45:27;;;;;;;13.33;5.90;;;14.80;1.00;;;;;;5029723;28;20519;-75
2023/10/09 03:48:02;;;;;;;13.27;5.73;;;14.80;1.00;;;;;;5028197;28;20196;-76
2023/10/09 03:50:35;;;;;;;21.23;7.20;;;14.80;1.00;;;;;;5026104;28;20442;-76
2023/10/09 03:53:03;;;;;;;20.43;6.60;;;14.70;1.00;;;;;;5029792;28;20845;-76
2023/10/09 03:55:28;;;;;;;15.20;5.97;;;14.60;1.00;;;;;;5026238;28;20436;-76
2023/10/09 03:57:58;;;;;;;15.57;6.00;;;14.60;1.00;;;;;;5032696;28;21001;-75
2023/10/09 04:00:29;;;;;;;16.37;6.00;;;14.50;1.00;;;;;;5028123;28;20185;-77
2023/10/09 04:02:57;;;;;;;17.53;5.90;;;14.50;1.00;;;;;;5028328;28;21017;-78
2023/10/09 04:05:23;;;;;;;14.10;6.10;;;14.50;1.00;;;;;;5026905;28;20433;-74
2023/10/09 04:07:49;;;;;;;18.97;6.43;;;14.40;1.00;;;;;;5031936;28;20437;-76
2023/10/09 04:10:42;;;;;;;24.27;5.50;;;14.40;1.00;;;;;;5032551;28;20451;-77
2023/10/09 04:13:11;;;;;;;15.17;5.93;;;14.40;1.00;;;;;;5032244;28;20198;-76
2023/10/09 04:15:37;;;;;;;21.57;6.53;;;14.50;1.00;;;;;;5024864;28;20435;-76
2023/10/09 04:18:05;;;;;;;15.27;7.30;;;14.60;1.00;;;;;;5028975;28;20437;-73
2023/10/09 04:23:04;;;;;;;22.37;8.73;;;14.40;1.00;;;;;;5023415;28;20548;-76
2023/10/09 04:25:40;;;;;;;19.47;6.40;;;14.30;1.00;;;;;;5021206;28;20437;-76
2023/10/09 04:28:18;;;;;;;18.13;6.67;;;14.30;1.00;;;;;;5016690;28;20454;-76
2023/10/09 04:30:53;;;;;;;22.00;6.63;;;14.30;1.00;;;;;;5028420;28;20772;-75
2023/10/09 04:36:21;;;;;;;17.60;6.50;;;14.20;1.00;;;;;;5028063;28;20466;-75
2023/10/09 04:41:32;;;;;;;38.23;10.37;;;14.10;1.00;;;;;;5028000;28;20994;-77
2023/10/09 04:44:35;;;;;;;37.10;13.87;;;13.80;1.00;;;;;;5021753;28;20475;-76
2023/10/09 04:57:45;;;;;;;38.07;14.30;;;14.40;1.00;;;;;;5032071;28;20423;-77
2023/10/09 05:00:47;;;;;;;22.10;9.37;;;14.40;1.00;;;;;;5028055;28;20545;-76
2023/10/09 05:03:24;;;;;;;25.93;8.20;;;14.40;1.00;;;;;;5030111;28;20472;-76
2023/10/09 05:05:58;;;;;;;26.00;7.87;;;14.40;1.00;;;;;;5025751;28;20445;-76
2023/10/09 05:13:42;;;;;;;24.37;8.50;;;14.40;1.00;;;;;;5029277;28;20449;-76
2023/10/09 05:16:18;;;;;;;21.93;7.43;;;14.50;1.00;;;;;;5028550;28;20435;-76
2023/10/09 05:18:45;;;;;;;26.17;7.90;;;14.50;1.00;;;;;;5025703;28;20950;-74
2023/10/09 05:29:19;;;;;;;20.20;6.97;;;14.70;1.00;;;;;;5028185;28;20443;-77
2023/10/09 05:34:36;;;;;;;23.03;7.80;;;14.70;1.00;;;;;;5030278;28;20428;-75
2023/10/09 05:37:22;;;;;;;20.87;7.00;;;14.70;1.00;;;;;;5029997;28;20470;-75
2023/10/09 05:42:42;;;;;;;28.93;7.23;;;14.70;1.00;;;;;;5033449;28;20472;-77
2023/10/09 05:47:57;;;;;;;22.73;7.77;;;14.70;1.00;;;;;;5029153;28;20447;-76
2023/10/09 06:01:05;;;;;;;18.90;6.70;;;14.70;1.00;;;;;;5032995;28;20522;-75
2023/10/09 06:06:18;;;;;;;19.07;6.97;;;14.80;1.00;;;;;;5032158;28;20527;-75
2023/10/09 06:16:41;;;;;;;17.47;6.30;;;15.00;1.00;;;;;;5036498;28;20435;-75
2023/10/09 06:19:08;;;;;;;18.23;6.60;;;15.10;1.00;;;;;;5032177;28;20512;-77
2023/10/09 06:22:09;;;;;;;20.38;6.03;;;15.10;1.00;;;;;;5023018;28;20452;-78
2023/10/09 06:24:41;;;;;;;16.23;6.70;;;15.20;1.00;;;;;;5028445;28;20663;-73
2023/10/09 06:34:57;;;;;;;23.60;6.60;;;15.50;1.00;;;;;;5030646;28;20494;-73
2023/10/09 06:42:34;;;;;;;19.60;6.90;;;15.60;1.00;;;;;;5031136;28;20468;-72
2023/10/09 06:47:53;;;;;;;20.73;6.73;;;15.70;1.00;;;;;;5030257;28;20424;-75
2023/10/09 06:52:57;;;;;;;21.80;6.30;;;15.70;1.00;;;;;;5032615;28;20456;-74
2023/10/09 06:55:37;;;;;;;25.73;7.30;;;15.80;1.00;;;;;;5029688;28;20442;-77
2023/10/09 06:58:09;;;;;;;24.63;7.10;;;15.90;1.00;;;;;;5023002;28;20482;-81
2023/10/09 07:03:34;;;;;;;20.03;6.20;;;16.00;1.00;;;;;;5029796;28;21030;-77
2023/10/09 07:06:23;;;;;;;23.17;6.03;;;16.00;1.00;;;;;;5030146;28;20797;-74
2023/10/09 07:17:15;;;;;;;24.07;6.73;;;16.10;1.00;;;;;;5026899;28;20545;-75
2023/10/09 07:24:53;;;;;;;24.63;7.10;;;16.50;1.00;;;;;;5018958;28;20428;-76
2023/10/09 07:27:43;;;;;;;18.67;6.30;;;16.60;1.00;;;;;;5024397;28;20521;-72
2023/10/09 07:30:35;;;;;;;19.37;6.37;;;16.70;1.00;;;;;;5024915;28;20440;-73
2023/10/09 07:32:54;;;;;;;25.97;7.87;;;16.70;1.00;;;;;;5022460;28;20455;-73
2023/10/09 07:38:08;;;;;;;27.40;7.17;;;17.20;1.00;;;;;;5030513;28;20932;-73
2023/10/09 07:40:54;;;;;;;29.30;9.20;;;17.40;1.00;;;;;;5026970;28;20428;-73
2023/10/09 07:43:25;;;;;;;18.63;6.37;;;17.50;1.00;;;;;;5023039;28;20998;-77
2023/10/09 07:46:29;;;;;;;22.10;7.60;;;17.50;1.00;;;;;;5025776;28;20444;-75
2023/10/09 07:48:51;;;;;;;28.83;7.53;;;17.60;1.00;;;;;;5030403;28;20784;-76
2023/10/09 07:51:22;;;;;;;33.40;7.47;;;17.70;1.00;;;;;;5030708;28;20821;-76
2023/10/09 07:53:57;;;;;;;29.13;7.47;;;17.80;1.00;;;;;;5028649;28;20452;-74
2023/10/09 07:56:23;;;;;;;25.17;7.20;;;17.80;1.00;;;;;;5030086;28;20890;-74
2023/10/09 07:58:49;;;;;;;25.20;8.43;;;17.90;1.00;;;;;;5043991;28;21086;-74
2023/10/09 08:01:16;;;;;;;30.10;7.00;;;18.00;1.00;;;;;;5030059;28;20557;-74
2023/10/09 08:03:45;;;;;;;18.60;7.10;;;18.00;1.00;;;;;;5028349;28;20564;-73
2023/10/09 08:11:59;;;;;;;21.77;7.37;;;18.30;1.00;;;;;;5030308;28;20421;-72
2023/10/09 08:17:16;;;;;;;23.77;6.90;;;18.30;1.00;;;;;;5027306;28;20756;-75
2023/10/09 08:20:11;;;;;;;16.43;6.43;;;18.30;1.00;;;;;;5029355;28;20645;-75
2023/10/09 08:22:43;;;;;;;27.20;7.60;;;18.30;1.00;;;;;;5030087;28;20467;-74
2023/10/09 08:25:26;;;;;;;29.00;6.30;;;18.40;1.00;;;;;;5029521;28;20495;-77
2023/10/09 08:28:29;;;;;;;22.47;7.00;;;18.40;1.00;;;;;;5029652;28;20436;-75
2023/10/09 08:31:02;;;;;;;20.53;6.60;;;18.50;1.00;;;;;;5028464;28;20432;-74
2023/10/09 08:33:41;;;;;;;23.33;6.80;;;18.70;1.00;;;;;;5030279;28;20535;-73
2023/10/09 08:36:08;;;;;;;28.83;7.50;;;19.10;1.00;;;;;;5028332;28;20768;-76
2023/10/09 08:38:34;;;;;;;25.30;6.90;;;19.40;1.00;;;;;;5029881;28;20412;-75
2023/10/09 08:41:19;;;;;;;22.53;6.00;;;19.70;1.00;;;;;;5030066;28;20464;-75
2023/10/09 08:43:53;;;;;;;16.50;6.10;;;20.00;1.00;;;;;;5029890;28;21080;-74
2023/10/09 08:46:20;;;;;;;30.07;6.23;;;20.20;1.00;;;;;;5022215;28;20412;-75
2023/10/09 08:48:47;;;;;;;23.03;7.20;;;20.40;1.00;;;;;;5028638;28;20498;-77
2023/10/09 08:51:14;;;;;;;18.00;6.67;;;20.50;1.00;;;;;;5020812;28;20931;-74
2023/10/09 08:53:42;;;;;;;33.10;7.00;;;20.50;1.00;;;;;;5028927;28;20448;-75
2023/10/09 08:56:10;;;;;;;23.13;6.20;;;20.60;1.00;;;;;;5029175;28;20834;-76
2023/10/09 08:58:39;;;;;;;31.40;8.20;;;20.80;1.00;;;;;;5028307;28;20478;-74
2023/10/09 09:01:04;;;;;;;19.20;7.80;;;21.00;1.00;;;;;;5027029;28;20538;-74
2023/10/09 09:03:43;;;;;;;30.40;6.50;;;21.40;1.00;;;;;;5029089;28;21033;-72
2023/10/09 09:06:09;;;;;;;23.43;6.17;;;21.90;1.00;;;;;;5029525;28;20173;-75
2023/10/09 09:08:37;;;;;;;23.80;7.07;;;22.10;1.00;;;;;;5027954;28;20507;-75
2023/10/09 09:13:50;;;;;;;21.10;7.10;;;22.50;1.00;;;;;;5026237;28;20457;-74
2023/10/09 09:16:20;;;;;;;19.47;6.27;;;22.60;1.00;;;;;;5025324;28;20432;-73
2023/10/09 09:19:03;;;;;;;18.40;6.20;;;22.40;1.00;;;;;;5032985;28;20431;-75
2023/10/09 09:21:29;;;;;;;34.70;6.47;;;22.50;1.00;;;;;;5033013;28;20455;-73
2023/10/09 09:24:01;;;;;;;20.83;6.30;;;22.60;1.00;;;;;;5048047;28;20785;-75
2023/10/09 09:26:36;;;;;;;18.30;6.37;;;22.80;1.00;;;;;;5032799;28;20416;-74
2023/10/09 09:29:03;;;;;;;24.87;6.23;;;22.90;1.00;;;;;;5032889;28;20423;-75
2023/10/09 09:31:28;;;;;;;24.40;6.10;;;23.00;1.00;;;;;;5033268;28;20432;-74
2023/10/09 09:34:01;;;;;;;35.63;6.27;;;23.00;1.00;;;;;;5033468;28;20462;-74
2023/10/09 09:36:30;;;;;;;23.20;5.43;;;22.80;1.00;;;;;;5032598;28;20177;-73
2023/10/09 09:39:01;;;;;;;29.37;6.30;;;22.50;1.00;;;;;;5033203;28;20922;-75
2023/10/09 09:41:27;;;;;;;16.03;5.80;;;22.40;1.00;;;;;;5048349;28;20467;-74
2023/10/09 09:44:00;;;;;;;17.90;5.10;;;22.30;1.00;;;;;;5032874;28;20806;-74
2023/10/09 09:46:33;;;;;;;20.33;5.83;;;22.10;1.00;;;;;;5028750;28;20902;-75
2023/10/09 09:49:12;;;;;;;23.30;10.10;;;21.90;1.00;;;;;;5032593;28;20553;-74
2023/10/09 09:51:37;;;;;;;16.60;5.50;;;21.70;1.00;;;;;;5032303;28;20767;-72
2023/10/09 09:54:08;;;;;;;16.70;4.97;;;21.60;1.00;;;;;;5028009;28;20444;-73
2023/10/09 09:56:38;;;;;;;14.23;5.57;;;21.60;1.00;;;;;;5029654;28;20309;-74
2023/10/09 09:59:06;;;;;;;27.23;5.50;;;21.60;1.00;;;;;;5027579;28;20933;-75
2023/10/09 10:01:35;;;;;;;19.63;5.30;;;21.80;1.00;;;;;;5032147;28;20490;-73
2023/10/09 10:04:20;;;;;;;18.40;6.87;;;21.90;1.00;;;;;;5033146;28;20491;-77
2023/10/09 10:06:47;;;;;;;20.97;5.20;;;22.10;1.00;;;;;;5031099;28;20446;-75
2023/10/09 10:09:39;;;;;;;16.37;4.97;;;22.20;1.00;;;;;;5036161;28;20415;-77
2023/10/09 10:12:11;;;;;;;15.93;5.77;;;22.40;1.00;;;;;;5030171;28;20740;-75
2023/10/09 10:14:59;;;;;;;18.50;5.50;;;22.60;1.00;;;;;;5029139;28;20910;-75
2023/10/09 10:17:27;;;;;;;11.67;5.17;;;22.60;1.00;;;;;;5022607;28;20467;-75
2023/10/09 10:20:13;;;;;;;19.60;5.63;;;22.60;1.00;;;;;;5032116;28;20435;-75
2023/10/09 10:22:38;;;;;;;18.60;5.27;;;22.50;1.00;;;;;;5035775;28;20550;-75
2023/10/09 10:25:09;;;;;;;20.33;5.47;;;22.30;1.00;;;;;;5028540;28;20530;-77
2023/10/09 10:27:44;;;;;;;14.90;5.10;;;22.30;1.00;;;;;;5026697;28;20601;-75
2023/10/09 10:30:13;;;;;;;17.23;5.43;;;22.20;1.00;;;;;;5047391;28;20435;-78
2023/10/09 10:32:51;;;;;;;17.67;5.20;;;22.00;1.00;;;;;;5028169;28;22719;-74
2023/10/09 10:35:32;;;;;;;20.13;5.50;;;21.90;1.00;;;;;;5025754;28;20431;-76
2023/10/09 10:40:45;;;;;;;13.97;5.23;;;22.00;1.00;;;;;;5028057;28;20440;-75
2023/10/09 10:46:23;;;;;;;21.70;5.97;;;22.00;1.00;;;;;;5025034;28;20949;-75
2023/10/09 10:48:59;;;;;;;14.90;5.47;;;21.80;1.00;;;;;;5032233;28;20937;-74
2023/10/09 10:51:40;;;;;;;23.50;6.23;;;21.80;1.00;;;;;;5026714;28;20891;-76
2023/10/09 10:54:29;;;;;;;14.53;4.83;;;21.90;1.00;;;;;;5032342;28;20428;-77
2023/10/09 10:56:57;;;;;;;14.50;6.53;;;22.20;1.00;;;;;;5030845;28;20530;-75
2023/10/09 10:59:24;;;;;;;12.70;4.90;;;22.60;1.00;;;;;;5030135;28;20515;-76
2023/10/09 11:01:56;;;;;;;20.70;5.50;;;23.20;1.00;;;;;;5028849;28;20467;-76
2023/10/09 11:07:00;;;;;;;19.30;6.00;;;23.60;1.00;;;;;;5031150;28;20451;-80
2023/10/09 11:09:35;;;;;;;19.90;5.47;;;23.50;1.00;;;;;;5031814;28;20571;-76
2023/10/09 11:12:22;;;;;;;14.83;5.07;;;23.40;1.00;;;;;;5032340;28;20455;-75
2023/10/09 11:15:08;;;;;;;12.50;4.77;;;23.40;1.00;;;;;;5023991;28;20429;-80
2023/10/09 11:17:35;;;;;;;14.07;5.47;;;23.60;1.00;;;;;;5033387;28;20428;-76
2023/10/09 11:20:22;;;;;;;11.40;4.83;;;24.00;1.00;;;;;;5032409;28;21080;-76
2023/10/09 11:23:37;;;;;;;18.53;5.67;;;24.30;1.00;;;;;;5025484;28;20506;-76
2023/10/09 11:25:52;;;;;;;15.70;6.00;;;24.30;1.00;;;;;;5025260;28;20434;-78
2023/10/09 11:28:44;;;;;;;16.77;6.63;;;25.90;1.00;;;;;;5029429;28;20440;-74
2023/10/09 11:31:15;;;;;;;25.20;5.50;;;27.60;1.00;;;;;;5028028;28;20593;-76
2023/10/09 11:33:51;;;;;;;20.43;5.10;;;28.00;1.00;;;;;;5026569;28;20517;-75
2023/10/09 11:36:21;;;;;;;11.80;5.70;;;27.10;1.00;;;;;;5037500;28;20666;-74
2023/10/09 11:38:49;;;;;;;14.73;5.33;;;26.80;1.00;;;;;;5027058;28;20828;-76
2023/10/09 11:41:19;;;;;;;11.93;4.93;;;27.00;1.00;;;;;;5026788;28;20216;-75
2023/10/09 11:43:54;;;;;;;14.47;5.10;;;27.50;1.00;;;;;;5025639;28;20190;-76
2023/10/09 11:54:33;;;;;;;10.70;3.90;;;26.60;1.00;;;;;;5028128;28;20964;-75
2023/10/09 11:57:00;;;;;;;11.80;5.20;;;25.10;1.00;;;;;;5035732;28;20432;-76
2023/10/09 11:59:27;;;;;;;13.63;5.77;;;24.90;1.00;;;;;;5021664;28;20428;-79
2023/10/09 12:01:53;;;;;;;17.30;5.97;;;24.80;1.00;;;;;;5023780;28;20463;-77
2023/10/09 12:04:18;;;;;;;13.43;5.63;;;24.90;1.00;;;;;;5036178;28;20428;-78
2023/10/09 12:06:44;;;;;;;18.80;5.60;;;24.80;1.00;;;;;;5029281;28;20543;-76
2023/10/09 12:09:23;;;;;;;15.97;4.53;;;25.30;1.00;;;;;;5032553;28;20255;-75
2023/10/09 12:11:52;;;;;;;14.63;5.27;;;26.80;1.00;;;;;;5030456;28;20456;-78
2023/10/09 12:14:23;;;;;;;16.63;5.40;;;26.80;1.00;;;;;;5046475;28;20796;-76
2023/10/09 12:16:49;;;;;;;11.03;4.73;;;27.40;1.00;;;;;;5025576;28;20570;-78
2023/10/09 12:19:15;;;;;;;18.73;5.97;;;28.20;1.00;;;;;;5027136;28;20798;-77
2023/10/09 12:21:42;;;;;;;20.00;5.27;;;30.30;1.00;;;;;;5032200;28;20199;-75
2023/10/09 12:24:11;;;;;;;16.60;4.97;;;30.20;1.00;;;;;;5021757;28;20174;-77
2023/10/09 12:26:39;;;;;;;15.50;4.90;;;30.90;1.00;;;;;;5030267;28;20188;-76
2023/10/09 12:29:10;;;;;;;24.17;5.70;;;30.70;1.00;;;;;;5026702;28;20267;-75
2023/10/09 12:31:36;;;;;;;11.48;5.40;;;29.90;1.00;;;;;;5030171;28;20173;-74
2023/10/09 12:34:02;;;;;;;14.25;4.97;;;29.20;1.00;;;;;;5027129;28;20181;-74
2023/10/09 12:36:28;;;;;;;14.18;5.35;;;29.40;1.00;;;;;;5027288;28;20268;-77
2023/10/09 12:38:54;;;;;;;11.32;5.00;;;30.00;1.00;;;;;;5033471;28;20197;-78
2023/10/09 12:41:26;;;;;;;15.00;5.00;;;30.90;1.00;;;;;;5027324;28;20197;-76
2023/10/09 12:43:52;;;;;;;16.58;5.10;;;32.00;1.00;;;;;;5043959;28;20200;-76
2023/10/09 12:46:22;;;;;;;16.25;6.47;;;33.20;1.00;;;;;;5027856;28;20663;-82
2023/10/09 12:48:54;;;;;;;12.18;5.22;;;33.80;1.00;;;;;;5029183;28;20188;-77
2023/10/09 12:51:20;;;;;;;17.98;5.22;;;33.70;1.00;;;;;;5024065;28;20204;-76
2023/10/09 12:53:56;;;;;;;17.45;5.80;;;33.30;1.00;;;;;;5027930;28;20200;-76
2023/10/09 12:56:37;;;;;;;13.15;5.30;;;33.20;1.00;;;;;;5027990;28;20177;-76
2023/10/09 12:59:04;;;;;;;18.33;5.45;;;33.40;1.00;;;;;;5029766;28;20176;-76
2023/10/09 13:01:32;;;;;;;10.82;4.38;;;33.70;1.00;;;;;;5027991;28;20250;-76
2023/10/09 13:03:59;;;;;;;13.35;5.35;;;33.20;1.00;;;;;;5030115;28;20238;-79
2023/10/09 13:06:25;;;;;;;14.18;5.10;;;33.10;1.00;;;;;;5031848;28;20556;-78
2023/10/09 13:08:51;;;;;;;15.93;4.63;;;32.80;1.00;;;;;;5026814;28;20184;-78
2023/10/09 13:11:18;;;;;;;14.63;4.93;;;32.80;1.00;;;;;;5023607;28;20549;-77
2023/10/09 13:13:47;;;;;;;19.13;5.20;;;32.10;1.00;;;;;;5029507;28;20283;-75
2023/10/09 13:16:25;;;;;;;16.20;5.10;;;32.10;1.00;;;;;;5031182;28;20485;-75
2023/10/09 13:18:56;;;;;;;19.08;5.75;;;32.30;1.00;;;;;;5031132;28;20263;-73
2023/10/09 13:21:23;;;;;;;10.73;4.85;;;32.80;1.00;;;;;;5029965;28;20200;-77
2023/10/09 13:23:50;;;;;;;18.15;5.20;;;32.80;1.00;;;;;;5035774;28;20668;-75
2023/10/09 13:26:17;;;;;;;11.27;4.90;;;33.10;1.00;;;;;;5025267;28;20173;-76
2023/10/09 13:28:50;;;;;;;18.92;5.15;;;33.40;1.00;;;;;;5031128;28;20681;-77
2023/10/09 13:31:17;;;;;;;15.85;4.75;;;32.40;1.00;;;;;;5031313;28;20177;-76
2023/10/09 13:33:43;;;;;;;14.40;5.70;;;32.10;1.00;;;;;;5032642;28;20189;-78
2023/10/09 13:36:17;;;;;;;17.08;5.32;;;31.30;1.00;;;;;;5027540;28;20213;-76
2023/10/09 13:38:43;;;;;;;15.10;5.32;;;31.00;1.00;;;;;;5032149;28;20204;-77
2023/10/09 13:41:12;;;;;;;14.10;4.50;;;30.90;1.00;;;;;;5029860;28;20205;-74
2023/10/09 13:43:42;;;;;;;18.45;5.30;;;30.70;1.00;;;;;;5026215;28;20190;-74
2023/10/09 13:46:09;;;;;;;12.57;5.07;;;29.90;1.00;;;;;;5025013;28;20174;-77
2023/10/09 13:48:38;;;;;;;16.90;4.80;;;28.70;1.00;;;;;;5027252;28;20173;-74
2023/10/09 13:51:07;;;;;;;24.58;4.80;;;27.90;1.00;;;;;;5048879;28;20417;-74
2023/10/09 13:53:35;;;;;;;18.90;5.67;;;27.70;1.00;;;;;;5025455;28;20235;-73
2023/10/09 13:56:02;;;;;;;19.33;4.77;;;27.40;1.00;;;;;;5030581;28;20276;-74
2023/10/09 13:58:28;;;;;;;18.17;5.03;;;27.40;1.00;;;;;;5033182;28;20547;-74
2023/10/09 14:00:53;;;;;;;17.77;4.90;;;27.20;1.00;;;;;;5038252;28;20185;-76
2023/10/09 14:03:23;;;;;;;17.07;5.30;;;27.00;1.00;;;;;;5031436;28;20236;-74
2023/10/09 14:05:54;;;;;;;14.57;4.87;;;26.90;1.00;;;;;;5033330;28;20173;-73
2023/10/09 14:08:23;;;;;;;15.43;5.00;;;26.80;1.00;;;;;;5031932;28;20170;-74
2023/10/09 14:10:49;;;;;;;12.73;5.00;;;26.60;1.00;;;;;;5033297;28;20288;-75
2023/10/09 14:13:17;;;;;;;15.20;4.93;;;26.70;1.00;;;;;;5035297;28;20198;-73
2023/10/09 14:15:45;;;;;;;18.33;6.03;;;26.60;1.00;;;;;;5031325;28;20176;-74
2023/10/09 14:18:11;;;;;;;17.97;5.43;;;26.50;1.00;;;;;;5033253;28;20264;-74
2023/10/09 14:20:41;;;;;;;12.30;4.80;;;26.60;1.00;;;;;;5031445;28;20632;-76
2023/10/09 14:23:07;;;;;;;16.93;5.27;;;26.60;1.00;;;;;;5032260;28;20228;-75
2023/10/09 14:25:38;;;;;;;24.77;5.40;;;26.70;1.00;;;;;;5039642;28;20431;-76
2023/10/09 14:28:07;;;;;;;14.90;5.30;;;27.00;1.00;;;;;;5032081;28;20552;-76
2023/10/09 14:30:43;;;;;;;20.43;5.57;;;27.10;1.00;;;;;;5032402;28;20264;-76
2023/10/09 14:33:12;;;;;;;15.20;4.77;;;27.10;1.00;;;;;;5032094;28;20745;-75
2023/10/09 14:35:41;;;;;;;18.07;4.90;;;27.20;1.00;;;;;;5032881;28;20505;-75
2023/10/09 14:38:15;;;;;;;13.67;5.03;;;26.90;1.00;;;;;;5033082;28;20447;-77
2023/10/09 14:40:42;;;;;;;16.33;5.47;;;27.00;1.00;;;;;;5028046;28;20438;-76
2023/10/09 14:43:16;;;;;;;14.20;4.90;;;26.80;1.00;;;;;;5022645;28;20223;-78
2023/10/09 14:45:42;;;;;;;13.93;5.63;;;26.80;1.00;;;;;;5035536;28;20436;-76
2023/10/09 14:48:10;;;;;;;15.60;5.50;;;26.90;1.00;;;;;;5032781;28;20181;-77
2023/10/09 14:50:38;;;;;;;18.77;5.40;;;27.00;1.00;;;;;;5037121;28;20201;-75
2023/10/09 14:53:04;;;;;;;12.90;4.67;;;27.00;1.00;;;;;;5032569;28;20232;-78
2023/10/09 14:55:31;;;;;;;17.10;5.40;;;27.10;1.00;;;;;;5034264;28;20668;-75
2023/10/09 14:57:58;;;;;;;14.03;5.37;;;27.40;1.00;;;;;;5029596;28;20193;-76
2023/10/09 15:00:24;;;;;;;12.93;4.70;;;27.10;1.00;;;;;;5032291;28;20177;-75
2023/10/09 15:02:53;;;;;;;16.00;5.10;;;27.10;1.00;;;;;;5033799;28;20217;-76
2023/10/09 15:05:18;;;;;;;21.13;5.50;;;27.10;1.00;;;;;;5030145;28;20201;-77
2023/10/09 15:07:45;;;;;;;16.70;5.83;;;27.10;1.00;;;;;;5028308;28;20213;-76
2023/10/09 15:10:15;;;;;;;14.63;5.03;;;27.10;1.00;;;;;;5030641;28;20178;-78
2023/10/09 15:12:42;;;;;;;13.53;5.20;;;26.90;1.00;;;;;;5035967;28;20671;-75
2023/10/09 15:15:13;;;;;;;11.50;5.40;;;26.90;1.00;;;;;;5038995;28;20445;-75
2023/10/09 15:17:43;;;;;;;16.13;5.13;;;26.80;1.00;;;;;;5035593;28;20226;-79
2023/10/09 15:20:13;;;;;;;14.37;5.00;;;26.90;1.00;;;;;;5037144;28;20428;-78
2023/10/09 15:22:42;;;;;;;20.07;6.43;;;26.90;1.00;;;;;;5032859;28;20232;-76
2023/10/09 15:25:08;;;;;;;12.07;5.20;;;26.80;1.00;;;;;;5033713;28;20237;-76
2023/10/09 15:27:34;;;;;;;11.63;4.40;;;26.60;1.00;;;;;;5034014;28;20237;-76